Nazareth, Texas
Current Conditions -  °F | °C
As of 5:15 PM on Friday 19 Dec 2014 (Local Time) from KHRX Reporting Station
Overcast Overcast  
Wind Chill: 39°   Ceiling: 1600
Heat Index: 42°   Visibility: 10mi
Dew Point: 36°   Wind: 5mph
Humidity: 79%   Direction: 230°SW
Pressure: 30.12"   Gusts: NA
Location:  34.54°N, 102.1°W
Report Text: KHRX 192315Z AUTO 23004KT 10SM OVC016 06/02 A3012 RMK AO2 T00560022
Loading
Personal Weather Stations






























Interactive Weather Map New forecast layout! Learn more

10-Day Weather Forecast

Advertisements
Track Severe Weather on mobile